Waubay, South Dakota
Current Conditions -  °F | °C
As of 11:53 AM on Saturday 20 Dec 2014 (Local Time) from KATY Reporting Station
Haze Haze  
Wind Chill: 18°   Ceiling: 300
Heat Index: 29°   Visibility: 2mi
Dew Point: 28°   Wind: 14mph
Humidity: 96%   Direction: 190°S
Pressure: 29.99"   Gusts: NA
Location:  45.33°N, 97.31°W
Report Text: KATY 201753Z AUTO 19012KT 2SM BR OVC003 M02/M02 A2999 RMK AO2 SLP179 T10171022 11017 21022 58005
Loading
Personal Weather Stations






























Interactive Weather Map New forecast layout! Learn more

10-Day Weather Forecast

Advertisements
Track Severe Weather on mobile